Terminal Aerodrome Forecast
Issued by NWS Charleston, WV

Current Version | Previous Version | Text Only | Print | Product List | Glossary Off
Versions: 1 2 3 4 5 6 7 8 9 10 11 12 13 14 15 16 17 18 19 20 21 22 23 24 25 26 27

000
FTUS41 KRLX 141700
TAFBKW
TAF
KBKW 141726Z 1418/1518 20018G27KT P6SM BKN070
     FM142000 20016G25KT P6SM VCTS BKN050CB
     FM142100 20015G24KT P6SM -SHRA VCTS BKN045CB
     FM150000 17011G17KT 5SM -SHRA VCTS OVC030CB
     FM150100 17011G16KT 4SM -SHRA OVC030
     FM150500 18010KT 3SM -SHRA VCTS OVC015CB
     FM150600 19010KT 2SM -SHRA VCTS OVC015CB
     FM150900 20010KT 2SM -SHRA OVC010
     FM151100 24010KT 2SM -SHRA OVC010
     FM151400 30013KT 2SM -SHRA OVC008
     FM151600 31016G23KT 2SM -SHRA OVC008
     FM151700 31016G24KT 2SM -SHRA OVC010=

USA.gov is the U.S. government's official web portal to all federal, state and local government web resources and services.